Time;durP1;ratioP1;P1;durP2;ratioP2;P2;SDS_P1;SDS_P2;PMS_P1;PMS_P2;Temp;Humidity;BMP_temperature;BMP_pressure;BME280_temperature;BME280_humidity;BME280_pressure;Samples;Min_cycle;Max_cycle;Signal;HPM_P1;HPM_P2
2022/02/21 00:01:22;;;;;;;7.07;1.60;;;;;;;5.51;100.00;99405.84;5069006;28;20047;-56
2022/02/21 00:03:50;;;;;;;5.28;1.00;;;;;;;5.50;100.00;99419.81;5073402;28;20051;-45
2022/02/21 00:06:19;;;;;;;14.43;1.67;;;;;;;5.48;100.00;99434.75;5074747;28;20044;-43
2022/02/21 00:08:48;;;;;;;10.68;1.55;;;;;;;5.45;100.00;99437.53;5074715;28;20047;-44
2022/02/21 00:11:18;;;;;;;9.15;1.67;;;;;;;5.42;100.00;99438.56;5074743;28;20045;-45
2022/02/21 00:13:46;;;;;;;11.18;1.20;;;;;;;5.37;100.00;99450.25;5074707;28;20427;-50
2022/02/21 00:16:14;;;;;;;8.05;1.23;;;;;;;5.38;100.00;99464.94;5074494;28;20116;-55
2022/02/21 00:18:42;;;;;;;6.00;1.48;;;;;;;5.34;100.00;99458.28;5071406;28;20456;-55
2022/02/21 00:21:10;;;;;;;8.20;1.38;;;;;;;5.36;100.00;99482.50;5071012;28;20067;-55
2022/02/21 00:23:38;;;;;;;9.07;1.25;;;;;;;5.34;100.00;99476.53;5074218;28;20055;-48
2022/02/21 00:26:08;;;;;;;9.73;1.55;;;;;;;5.28;100.00;99475.16;5074309;28;20442;-55
2022/02/21 00:28:36;;;;;;;11.45;1.52;;;;;;;5.17;100.00;99480.22;5074219;28;20044;-46
2022/02/21 00:31:04;;;;;;;5.45;1.45;;;;;;;5.16;100.00;99479.38;5074200;28;20045;-55
2022/02/21 00:33:32;;;;;;;6.65;1.23;;;;;;;5.07;100.00;99498.19;5073988;28;20404;-55
2022/02/21 00:36:00;;;;;;;10.07;1.58;;;;;;;5.00;100.00;99502.13;5070353;28;20048;-54
2022/02/21 00:38:28;;;;;;;8.45;1.42;;;;;;;4.78;100.00;99503.47;5070719;28;20572;-45
2022/02/21 00:40:56;;;;;;;6.50;1.52;;;;;;;4.59;100.00;99502.97;5074008;28;20507;-46
2022/02/21 00:43:26;;;;;;;7.50;1.45;;;;;;;4.65;100.00;99515.59;5073944;28;20053;-47
2022/02/21 00:45:54;;;;;;;8.70;1.80;;;;;;;4.65;100.00;99513.84;5073675;28;20056;-50
2022/02/21 00:48:22;;;;;;;12.50;1.90;;;;;;;4.72;100.00;99530.75;5072773;28;20111;-53
2022/02/21 00:50:50;;;;;;;12.18;1.80;;;;;;;4.78;100.00;99506.09;5063135;28;20045;-45
2022/02/21 00:53:19;;;;;;;10.80;1.90;;;;;;;4.81;100.00;99525.91;5069633;28;20052;-55
2022/02/21 00:55:47;;;;;;;14.52;2.22;;;;;;;4.84;100.00;99521.34;5064894;28;20091;-45
2022/02/21 00:58:15;;;;;;;15.00;2.08;;;;;;;4.87;100.00;99528.97;5067824;28;20056;-58
2022/02/21 01:00:45;;;;;;;13.02;3.40;;;;;;;4.89;100.00;99527.13;5062800;28;20037;-53
2022/02/21 01:03:13;;;;;;;17.60;2.67;;;;;;;4.90;100.00;99547.00;5070216;28;20510;-55
2022/02/21 01:05:42;;;;;;;14.10;1.67;;;;;;;4.93;100.00;99545.16;5069262;28;20052;-44
2022/02/21 01:08:10;;;;;;;8.77;2.05;;;;;;;4.93;100.00;99566.00;5066761;28;20501;-55
2022/02/21 01:10:39;;;;;;;21.90;2.35;;;;;;;4.91;100.00;99574.75;5066076;28;20107;-55
2022/02/21 01:13:08;;;;;;;12.00;1.98;;;;;;;4.83;100.00;99603.03;5048974;28;20045;-44
2022/02/21 01:15:36;;;;;;;8.70;2.03;;;;;;;4.47;100.00;99622.56;5068685;28;20412;-55
2022/02/21 01:18:05;;;;;;;9.60;1.42;;;;;;;4.18;100.00;99613.84;5070815;28;20098;-55
2022/02/21 01:20:33;;;;;;;12.45;2.20;;;;;;;4.05;100.00;99621.53;5070539;28;20036;-54
2022/02/21 01:23:01;;;;;;;11.60;1.65;;;;;;;3.98;100.00;99623.66;5067606;28;20072;-44
2022/02/21 01:25:30;;;;;;;5.65;1.23;;;;;;;3.79;100.00;99615.19;5064871;28;20067;-54
2022/02/21 01:27:58;;;;;;;4.88;1.30;;;;;;;3.75;100.00;99611.94;5066013;28;20044;-51
2022/02/21 01:30:26;;;;;;;9.05;1.92;;;;;;;3.76;100.00;99626.59;5059568;28;20056;-55
2022/02/21 01:32:54;;;;;;;11.27;2.17;;;;;;;3.85;100.00;99620.88;5053208;28;20079;-56
2022/02/21 01:35:23;;;;;;;16.52;2.72;;;;;;;3.93;100.00;99611.81;5066315;28;20041;-56
2022/02/21 01:37:51;;;;;;;11.93;2.03;;;;;;;3.98;100.00;99613.25;5070835;28;20102;-55
2022/02/21 01:40:20;;;;;;;12.68;3.00;;;;;;;4.08;100.00;99608.34;5068827;28;20043;-48
2022/02/21 01:42:48;;;;;;;13.52;1.85;;;;;;;4.33;100.00;99612.09;5064599;28;20044;-48
2022/02/21 01:45:17;;;;;;;15.55;3.03;;;;;;;4.36;100.00;99619.72;5063465;28;20056;-56
2022/02/21 01:47:45;;;;;;;16.17;2.17;;;;;;;4.37;100.00;99605.78;5060144;28;20080;-54
2022/02/21 01:50:13;;;;;;;14.40;2.95;;;;;;;4.37;100.00;99637.84;5066228;28;20049;-43
2022/02/21 01:52:43;;;;;;;13.75;2.38;;;;;;;4.40;100.00;99624.69;5068043;28;20052;-43
2022/02/21 01:55:12;;;;;;;10.68;1.70;;;;;;;4.46;100.00;99623.47;5058447;28;20052;-43
2022/02/21 01:57:42;;;;;;;10.82;1.77;;;;;;;4.43;100.00;99644.50;5068765;28;20113;-43
2022/02/21 02:00:11;;;;;;;9.98;2.28;;;;;;;4.39;100.00;99635.16;5061047;28;20043;-54
2022/02/21 02:02:43;;;;;;;11.90;3.05;;;;;;;4.38;98.51;99630.91;5064723;28;20086;-44
2022/02/21 02:05:11;;;;;;;9.60;2.42;;;;;;;4.37;99.03;99650.06;5070293;28;20036;-44
2022/02/21 02:07:39;;;;;;;10.90;1.75;;;;;;;4.37;98.60;99648.28;5063963;28;20103;-56
2022/02/21 02:10:10;;;;;;;11.70;1.55;;;;;;;4.42;99.30;99650.63;5062986;28;20044;-46
2022/02/21 02:12:38;;;;;;;20.98;2.15;;;;;;;4.41;98.81;99654.16;5060520;28;20048;-45
2022/02/21 02:15:13;;;;;;;12.68;1.52;;;;;;;4.37;100.00;99650.06;5058438;28;20066;-54
2022/02/21 02:17:41;;;;;;;12.52;1.88;;;;;;;4.35;100.00;99644.09;5068545;28;20106;-52
2022/02/21 02:20:11;;;;;;;10.35;1.65;;;;;;;4.33;98.93;99656.38;5064151;28;20487;-54
2022/02/21 02:22:41;;;;;;;14.10;2.00;;;;;;;4.32;100.00;99646.88;5069888;28;20556;-48
2022/02/21 02:25:09;;;;;;;8.80;1.50;;;;;;;4.35;97.41;99660.56;5071001;28;20048;-53
2022/02/21 02:27:37;;;;;;;15.20;1.90;;;;;;;4.28;98.50;99646.22;5071898;28;20087;-54
2022/02/21 02:30:07;;;;;;;10.65;1.98;;;;;;;4.33;96.12;99653.75;5071986;28;20065;-46
2022/02/21 02:32:35;;;;;;;12.07;2.17;;;;;;;4.33;97.66;99654.59;5072060;28;20427;-44
2022/02/21 02:35:04;;;;;;;12.00;2.58;;;;;;;4.30;97.62;99661.75;5071914;28;20051;-46
2022/02/21 02:37:32;;;;;;;9.73;1.70;;;;;;;4.25;98.81;99656.78;5072118;28;20143;-56
2022/02/21 02:40:01;;;;;;;16.80;2.15;;;;;;;4.17;98.89;99675.47;5072056;28;20555;-49
2022/02/21 02:42:30;;;;;;;9.65;2.08;;;;;;;4.02;100.00;99669.38;5071948;28;20052;-54
2022/02/21 02:44:58;;;;;;;9.35;1.58;;;;;;;3.89;100.00;99684.81;5071771;28;20068;-49
2022/02/21 02:47:26;;;;;;;11.10;1.65;;;;;;;3.78;100.00;99665.56;5071840;28;20058;-55
2022/02/21 02:49:54;;;;;;;13.90;1.95;;;;;;;3.70;100.00;99671.16;5072013;28;20139;-54
2022/02/21 02:52:22;;;;;;;10.75;1.60;;;;;;;3.68;100.00;99675.59;5072294;28;20044;-55
2022/02/21 02:54:50;;;;;;;10.70;2.35;;;;;;;3.69;100.00;99674.69;5069248;28;20118;-43
2022/02/21 02:57:19;;;;;;;15.40;2.35;;;;;;;3.70;100.00;99665.97;5069109;28;20429;-45
2022/02/21 02:59:47;;;;;;;11.77;1.65;;;;;;;3.74;100.00;99670.06;5070964;28;20055;-54
2022/02/21 03:02:16;;;;;;;10.85;2.00;;;;;;;3.75;100.00;99670.91;5068631;28;20072;-44
2022/02/21 03:04:44;;;;;;;8.27;1.90;;;;;;;3.79;99.88;99681.06;5074185;28;20048;-56
2022/02/21 03:07:12;;;;;;;9.93;1.55;;;;;;;3.82;100.00;99682.66;5075538;28;20048;-50
2022/02/21 03:09:40;;;;;;;12.70;1.88;;;;;;;3.81;98.65;99697.41;5075728;28;20040;-45
2022/02/21 03:12:09;;;;;;;7.78;1.55;;;;;;;3.84;98.39;99676.44;5075547;28;20116;-43
2022/02/21 03:14:39;;;;;;;11.73;2.25;;;;;;;3.81;95.42;99658.41;5075331;28;20499;-52
2022/02/21 03:17:07;;;;;;;13.68;2.22;;;;;;;3.80;96.58;99661.09;5071824;28;20095;-53
2022/02/21 03:19:35;;;;;;;10.93;1.73;;;;;;;3.78;96.76;99668.97;5071810;28;20045;-51
2022/02/21 03:22:03;;;;;;;14.15;2.63;;;;;;;3.80;97.13;99672.31;5074344;28;20103;-55
2022/02/21 03:24:32;;;;;;;13.25;1.77;;;;;;;3.72;97.05;99659.75;5075122;28;20403;-53
2022/02/21 03:27:00;;;;;;;10.63;1.65;;;;;;;3.72;95.80;99670.16;5075242;28;20052;-51
2022/02/21 03:29:28;;;;;;;9.93;1.70;;;;;;;3.80;94.58;99682.72;5075316;28;20110;-54
2022/02/21 03:31:57;;;;;;;10.60;1.80;;;;;;;3.82;96.27;99683.50;5075224;28;20059;-55
2022/02/21 03:34:30;;;;;;;17.65;2.45;;;;;;;3.78;97.10;99689.78;5075201;28;20403;-53
2022/02/21 03:36:58;;;;;;;14.45;1.92;;;;;;;3.76;100.00;99709.81;5074245;28;20075;-53
2022/02/21 03:39:26;;;;;;;14.43;1.92;;;;;;;3.52;100.00;99723.25;5072270;28;20074;-54
2022/02/21 03:41:54;;;;;;;14.68;2.17;;;;;;;3.24;100.00;99710.88;5072340;28;20483;-53
2022/02/21 03:44:22;;;;;;;13.80;2.05;;;;;;;3.13;100.00;99708.00;5074930;28;20416;-53
2022/02/21 03:46:50;;;;;;;8.05;1.98;;;;;;;3.17;100.00;99694.75;5070771;28;20051;-54
2022/02/21 03:49:20;;;;;;;12.20;1.73;;;;;;;3.13;100.00;99698.44;5070667;28;20064;-53
2022/02/21 03:51:48;;;;;;;11.30;1.85;;;;;;;3.15;100.00;99694.03;5075041;28;20425;-54
2022/02/21 03:54:16;;;;;;;8.88;1.90;;;;;;;3.26;100.00;99705.59;5074889;28;20040;-54
2022/02/21 03:56:44;;;;;;;12.73;2.28;;;;;;;3.27;100.00;99710.69;5073327;28;20048;-55
2022/02/21 03:59:12;;;;;;;13.80;2.33;;;;;;;3.33;100.00;99706.97;5071267;28;20054;-55
2022/02/21 04:01:40;;;;;;;13.60;1.80;;;;;;;3.33;100.00;99712.16;5073937;28;20040;-53
2022/02/21 04:04:08;;;;;;;13.00;2.20;;;;;;;3.32;100.00;99715.69;5073889;28;20040;-54
2022/02/21 04:06:38;;;;;;;13.30;2.28;;;;;;;3.34;100.00;99709.47;5071307;28;20545;-53
2022/02/21 04:09:06;;;;;;;9.70;1.45;;;;;;;3.43;100.00;99702.13;5072324;28;20053;-53
2022/02/21 04:11:34;;;;;;;9.60;1.80;;;;;;;3.47;97.68;99707.06;5074480;28;20495;-51
2022/02/21 04:14:02;;;;;;;13.93;1.77;;;;;;;3.49;96.14;99702.63;5074219;28;20071;-53
2022/02/21 04:16:32;;;;;;;13.00;1.80;;;;;;;3.50;96.48;99716.44;5069561;28;20772;-53
2022/02/21 04:19:02;;;;;;;9.65;1.55;;;;;;;3.50;95.26;99719.88;5070573;28;20044;-53
2022/02/21 04:21:30;;;;;;;10.98;1.92;;;;;;;3.54;93.32;99720.56;5073120;28;20143;-53
2022/02/21 04:24:00;;;;;;;12.68;1.77;;;;;;;3.58;93.88;99719.47;5070548;28;20048;-54
2022/02/21 04:26:28;;;;;;;12.55;1.67;;;;;;;3.59;93.51;99725.53;5073499;28;20049;-52
2022/02/21 04:28:56;;;;;;;12.00;1.85;;;;;;;3.58;94.56;99719.47;5074493;28;20711;-54
2022/02/21 04:31:24;;;;;;;14.25;2.22;;;;;;;3.61;93.60;99727.09;5072309;28;20048;-54
2022/02/21 04:33:52;;;;;;;10.45;2.08;;;;;;;3.65;91.78;99730.38;5070891;28;20087;-56
2022/02/21 04:36:20;;;;;;;16.58;2.42;;;;;;;3.62;91.67;99734.00;5072315;28;20552;-56
2022/02/21 04:38:49;;;;;;;9.57;1.65;;;;;;;3.65;92.96;99741.63;5073974;28;20061;-44
2022/02/21 04:41:19;;;;;;;11.13;2.20;;;;;;;3.62;95.38;99726.19;5067809;28;20083;-54
2022/02/21 04:43:47;;;;;;;7.68;1.65;;;;;;;3.71;92.14;99737.88;5069822;28;20045;-55
2022/02/21 04:46:15;;;;;;;13.95;2.72;;;;;;;3.76;92.13;99737.59;5060560;28;20453;-55
2022/02/21 04:48:43;;;;;;;11.63;1.83;;;;;;;3.70;89.97;99724.00;5068309;28;20041;-43
2022/02/21 04:51:11;;;;;;;14.55;2.08;;;;;;;3.65;88.50;99720.81;5064890;28;20041;-43
2022/02/21 04:53:39;;;;;;;13.02;2.28;;;;;;;3.65;87.63;99706.97;5067834;28;20044;-44
2022/02/21 04:56:07;;;;;;;7.22;1.98;;;;;;;3.65;87.10;99714.78;5058785;28;20048;-43
2022/02/21 04:58:37;;;;;;;13.07;1.95;;;;;;;3.64;88.22;99728.69;5068405;28;20123;-55
2022/02/21 05:01:05;;;;;;;6.75;1.23;;;;;;;3.61;86.02;99721.06;5062563;28;20123;-55
2022/02/21 05:03:33;;;;;;;13.32;2.38;;;;;;;3.57;85.13;99723.00;5065369;28;20052;-55
2022/02/21 05:06:01;;;;;;;9.30;1.60;;;;;;;3.56;85.27;99726.53;5070321;28;20044;-55
2022/02/21 05:08:31;;;;;;;14.00;2.42;;;;;;;3.59;87.07;99717.72;5070774;28;20570;-54
2022/02/21 05:10:59;;;;;;;8.63;1.70;;;;;;;3.57;87.02;99715.19;5066107;28;20052;-53
2022/02/21 05:13:27;;;;;;;8.35;1.45;;;;;;;3.54;87.20;99716.22;5058359;28;20076;-43
2022/02/21 05:15:57;;;;;;;11.40;3.08;;;;;;;3.53;86.47;99719.72;5069419;28;20049;-53
2022/02/21 05:18:25;;;;;;;10.57;1.90;;;;;;;3.54;88.80;99720.56;5053476;28;20110;-53
2022/02/21 05:20:53;;;;;;;6.68;1.25;;;;;;;3.52;89.51;99719.81;5053139;28;20040;-43
2022/02/21 05:23:21;;;;;;;11.18;1.77;;;;;;;3.55;88.85;99715.28;5049863;28;20738;-55
2022/02/21 05:25:49;;;;;;;15.27;2.25;;;;;;;3.55;88.32;99710.06;5049587;28;20060;-47
2022/02/21 05:28:17;;;;;;;12.98;2.35;;;;;;;3.52;90.13;99697.25;5053059;28;20079;-44
2022/02/21 05:30:45;;;;;;;14.07;2.00;;;;;;;3.55;87.55;99701.44;5053036;28;20045;-43
2022/02/21 05:33:15;;;;;;;14.05;1.90;;;;;;;3.55;87.80;99704.88;5052799;28;20053;-55
2022/02/21 05:35:43;;;;;;;14.60;2.63;;;;;;;3.59;89.79;99704.72;5052847;28;20069;-43
2022/02/21 05:38:11;;;;;;;11.80;1.77;;;;;;;3.66;87.68;99699.09;5052835;28;20045;-54
2022/02/21 05:40:39;;;;;;;10.18;1.83;;;;;;;3.63;89.23;99690.63;5053119;28;20049;-55
2022/02/21 05:43:07;;;;;;;12.85;1.67;;;;;;;3.61;89.80;99693.28;5052585;28;20048;-42
2022/02/21 05:45:35;;;;;;;10.15;1.65;;;;;;;3.60;90.78;99704.66;5052670;28;20049;-56
2022/02/21 05:48:04;;;;;;;11.25;1.98;;;;;;;3.63;90.20;99704.47;5052765;28;20056;-56
2022/02/21 05:50:34;;;;;;;10.60;1.60;;;;;;;3.62;91.46;99707.97;5052674;28;20049;-45
2022/02/21 05:53:02;;;;;;;10.27;1.80;;;;;;;3.60;90.11;99696.84;5052446;28;20535;-45
2022/02/21 05:55:30;;;;;;;10.73;2.30;;;;;;;3.59;90.67;99699.53;5052576;28;20124;-56
2022/02/21 05:57:58;;;;;;;10.90;1.98;;;;;;;3.60;90.35;99689.03;5052645;28;20451;-55
2022/02/21 06:00:27;;;;;;;19.25;2.45;;;;;;;3.57;89.84;99694.38;5052424;28;20459;-48
2022/02/21 06:02:55;;;;;;;8.10;1.48;;;;;;;3.53;89.82;99698.94;5052277;28;20059;-45
2022/02/21 06:05:23;;;;;;;8.25;2.08;;;;;;;3.54;90.53;99699.75;5052474;28;20109;-56
2022/02/21 06:07:53;;;;;;;14.57;1.90;;;;;;;3.48;91.46;99694.91;5052503;28;20128;-45
2022/02/21 06:10:22;;;;;;;13.27;1.73;;;;;;;3.44;91.06;99699.44;5052646;28;20088;-56
2022/02/21 06:12:50;;;;;;;12.98;1.80;;;;;;;3.43;90.30;99699.50;5052346;28;20059;-48
2022/02/21 06:15:18;;;;;;;13.10;2.78;;;;;;;3.42;91.09;99693.47;5052320;28;20420;-54
2022/02/21 06:17:46;;;;;;;14.35;2.03;;;;;;;3.37;92.11;99704.13;5051729;28;20398;-55
2022/02/21 06:20:14;;;;;;;11.60;1.92;;;;;;;3.43;92.16;99710.72;5051846;28;20056;-54
2022/02/21 06:22:43;;;;;;;15.57;2.95;;;;;;;3.36;92.98;99707.63;5050932;28;20053;-46
2022/02/21 06:25:12;;;;;;;11.07;2.45;;;;;;;3.36;93.87;99715.41;5052473;28;20111;-49
2022/02/21 06:27:41;;;;;;;9.02;1.85;;;;;;;3.33;94.10;99709.56;5052321;28;20443;-56
2022/02/21 06:30:10;;;;;;;16.83;2.15;;;;;;;3.33;92.67;99712.16;5052206;28;20045;-45
2022/02/21 06:32:38;;;;;;;12.57;1.90;;;;;;;3.38;92.76;99710.13;5052157;28;20057;-46
2022/02/21 06:35:07;;;;;;;16.27;1.73;;;;;;;3.34;94.14;99703.41;5052120;28;20045;-55
2022/02/21 06:37:41;;;;;;;18.38;3.53;;;;;;;3.37;94.12;99708.47;5056297;28;20052;-42
2022/02/21 06:40:10;;;;;;;13.05;2.10;;;;;;;3.30;94.62;99697.56;5056373;28;20040;-42
2022/02/21 06:42:40;;;;;;;6.50;1.33;;;;;;;3.37;93.32;99700.69;5056195;28;20094;-43
2022/02/21 06:45:09;;;;;;;16.80;2.22;;;;;;;3.40;92.65;99697.09;5055713;28;20053;-44
2022/02/21 06:47:37;;;;;;;11.75;2.80;;;;;;;3.34;93.74;99703.41;5055940;28;20045;-55
2022/02/21 06:50:07;;;;;;;11.95;2.20;;;;;;;3.42;93.99;99696.06;5055603;28;20045;-54
2022/02/21 06:52:35;;;;;;;10.85;1.60;;;;;;;3.44;93.16;99699.44;5055609;28;20055;-51
2022/02/21 06:55:05;;;;;;;12.38;1.88;;;;;;;3.36;92.66;99714.59;5055822;28;20506;-53
2022/02/21 06:57:33;;;;;;;8.40;1.40;;;;;;;3.41;93.17;99699.59;5055934;28;20052;-55
2022/02/21 07:00:04;;;;;;;9.00;1.80;;;;;;;3.39;93.46;99691.03;5054759;28;20087;-55
2022/02/21 07:02:32;;;;;;;17.10;2.33;;;;;;;3.45;93.18;99693.31;5056190;28;20049;-55
2022/02/21 07:05:00;;;;;;;13.27;2.35;;;;;;;3.46;92.38;99699.34;5055798;28;20072;-54
2022/02/21 07:07:29;;;;;;;12.13;1.80;;;;;;;3.55;93.18;99684.06;5055904;28;20037;-56
2022/02/21 07:09:57;;;;;;;12.80;2.67;;;;;;;3.55;93.78;99697.06;5055781;28;20457;-53
2022/02/21 07:12:25;;;;;;;12.85;1.55;;;;;;;3.64;92.44;99693.16;5055554;28;20469;-54
2022/02/21 07:14:53;;;;;;;12.43;2.05;;;;;;;3.63;93.76;99688.03;5055647;28;20049;-54
2022/02/21 07:17:26;;;;;;;7.38;1.63;;;;;;;3.70;92.52;99692.81;5055673;28;20056;-52
2022/02/21 07:19:55;;;;;;;14.90;2.05;;;;;;;3.68;92.83;99696.41;5055683;28;20492;-53
2022/02/21 07:22:25;;;;;;;10.23;2.38;;;;;;;3.75;92.77;99702.97;5055389;28;20069;-52
2022/02/21 07:24:53;;;;;;;11.43;2.10;;;;;;;3.72;93.16;99693.56;5055371;28;20144;-43
2022/02/21 07:27:21;;;;;;;11.75;2.65;;;;;;;3.73;93.75;99689.19;5055510;28;20348;-43
2022/02/21 07:29:49;;;;;;;11.95;1.83;;;;;;;3.80;92.57;99690.53;5055539;28;20049;-48
2022/02/21 07:32:17;;;;;;;20.13;2.92;;;;;;;3.80;92.86;99694.91;5055209;28;20060;-45
2022/02/21 07:34:47;;;;;;;14.48;1.95;;;;;;;3.86;92.20;99692.81;5055150;28;20424;-46
2022/02/21 07:37:15;;;;;;;10.88;1.70;;;;;;;3.91;91.33;99699.50;5055252;28;20132;-48
2022/02/21 07:39:43;;;;;;;17.25;2.28;;;;;;;3.93;92.57;99710.66;5055244;28;20049;-43
2022/02/21 07:42:11;;;;;;;17.52;2.15;;;;;;;3.93;92.15;99689.84;5055198;28;20136;-44
2022/02/21 07:44:39;;;;;;;13.70;2.13;;;;;;;3.93;92.67;99689.84;5054703;28;20400;-44
2022/02/21 07:47:09;;;;;;;12.13;1.70;;;;;;;3.95;93.19;99688.84;5054465;28;20399;-46
2022/02/21 07:49:37;;;;;;;10.82;1.52;;;;;;;3.97;92.44;99694.81;5055201;28;20392;-44
2022/02/21 07:52:07;;;;;;;14.50;2.05;;;;;;;4.06;91.70;99685.63;5054941;28;20146;-48
2022/02/21 07:54:35;;;;;;;12.77;2.00;;;;;;;4.01;93.14;99682.47;5055159;28;20439;-46
2022/02/21 07:57:09;;;;;;;13.43;1.88;;;;;;;4.02;92.82;99671.13;5054963;28;20048;-44
2022/02/21 07:59:38;;;;;;;15.23;2.75;;;;;;;4.04;92.47;99683.13;5055124;28;20433;-47
2022/02/21 08:02:06;;;;;;;13.73;2.47;;;;;;;4.08;92.21;99670.78;5055217;28;20053;-42
2022/02/21 08:04:34;;;;;;;11.20;2.03;;;;;;;4.12;93.01;99664.47;5053309;28;20389;-43
2022/02/21 08:07:02;;;;;;;11.77;1.80;;;;;;;4.26;91.45;99660.25;5054548;28;20072;-44
2022/02/21 08:09:31;;;;;;;14.05;2.20;;;;;;;4.26;91.17;99645.47;5054641;28;20060;-43
2022/02/21 08:11:59;;;;;;;16.73;3.38;;;;;;;4.27;90.29;99652.34;5054450;28;20523;-47
2022/02/21 08:14:27;;;;;;;10.98;2.17;;;;;;;4.33;90.64;99651.16;5054567;28;20479;-43
2022/02/21 08:16:55;;;;;;;15.43;3.22;;;;;;;4.33;91.10;99640.75;5054585;28;20086;-55
2022/02/21 08:19:26;;;;;;;11.38;2.13;;;;;;;4.37;90.30;99640.47;5054317;28;20188;-47
2022/02/21 08:21:54;;;;;;;12.50;1.77;;;;;;;4.42;90.63;99635.00;5054430;28;20044;-42
2022/02/21 08:24:22;;;;;;;17.02;2.55;;;;;;;4.44;89.66;99633.13;5054244;28;20041;-54
2022/02/21 08:26:52;;;;;;;17.80;2.60;;;;;;;4.43;90.63;99604.59;5054347;28;20060;-43
2022/02/21 08:29:20;;;;;;;11.77;1.63;;;;;;;4.47;89.57;99616.50;5054114;28;20045;-47
2022/02/21 08:31:48;;;;;;;11.88;1.90;;;;;;;4.52;89.53;99604.06;5054163;28;20045;-43
2022/02/21 08:34:18;;;;;;;10.93;2.03;;;;;;;4.51;90.21;99598.00;5053794;28;20416;-45
2022/02/21 08:36:47;;;;;;;10.98;2.33;;;;;;;4.46;89.98;99602.66;5053621;28;20132;-44
2022/02/21 08:39:15;;;;;;;12.90;2.03;;;;;;;4.44;91.17;99590.66;5053869;28;20116;-45
2022/02/21 08:41:43;;;;;;;12.38;2.03;;;;;;;4.40;91.17;99582.19;5054361;28;20144;-48
2022/02/21 08:44:13;;;;;;;16.08;2.35;;;;;;;4.40;91.18;99587.38;5054008;28;20080;-45
2022/02/21 08:46:41;;;;;;;14.27;2.03;;;;;;;4.40;90.22;99582.19;5053825;28;20063;-44
2022/02/21 08:49:09;;;;;;;13.93;2.83;;;;;;;4.44;91.35;99593.25;5054012;28;20368;-46
2022/02/21 08:51:37;;;;;;;10.50;1.63;;;;;;;4.42;91.18;99584.69;5053842;28;20099;-46
2022/02/21 08:54:05;;;;;;;12.50;2.28;;;;;;;4.36;91.34;99572.88;5053492;28;20045;-48
2022/02/21 08:56:34;;;;;;;10.63;1.60;;;;;;;4.39;92.65;99575.28;5053883;28;20119;-47
2022/02/21 08:59:02;;;;;;;9.45;2.58;;;;;;;4.39;92.97;99586.56;5052724;28;20037;-46
2022/02/21 09:01:32;;;;;;;9.23;1.40;;;;;;;4.22;95.61;99584.94;5053699;28;20041;-43
2022/02/21 09:04:00;;;;;;;11.93;1.70;;;;;;;4.13;99.50;99588.09;5053505;28;20052;-48
2022/02/21 09:06:28;;;;;;;11.80;1.80;;;;;;;4.03;100.00;99573.94;5053575;28;20049;-46
2022/02/21 09:08:56;;;;;;;14.55;2.22;;;;;;;4.00;100.00;99576.72;5053650;28;20052;-47
2022/02/21 09:11:24;;;;;;;11.50;2.15;;;;;;;3.96;100.00;99559.63;5053650;28;20438;-50
2022/02/21 09:13:52;;;;;;;11.90;2.42;;;;;;;3.75;100.00;99552.13;5053697;28;20094;-46
2022/02/21 09:16:21;;;;;;;15.32;1.92;;;;;;;3.79;100.00;99551.03;5053699;28;20140;-46
2022/02/21 09:18:50;;;;;;;10.65;2.15;;;;;;;3.77;100.00;99545.06;5053431;28;20380;-47
2022/02/21 09:21:21;;;;;;;8.23;1.70;;;;;;;3.81;100.00;99553.53;5052290;28;20148;-43
2022/02/21 09:23:50;;;;;;;10.27;1.60;;;;;;;3.76;100.00;99551.19;5052040;28;20060;-47
2022/02/21 09:26:18;;;;;;;12.52;1.73;;;;;;;3.72;100.00;99547.09;5053287;28;20051;-48
2022/02/21 09:28:46;;;;;;;9.48;1.90;;;;;;;3.70;100.00;99547.16;5053438;28;20103;-45
2022/02/21 09:31:14;;;;;;;8.15;1.80;;;;;;;3.54;100.00;99544.63;5053405;28;20056;-43
2022/02/21 09:33:42;;;;;;;10.88;2.20;;;;;;;3.52;100.00;99538.66;5053658;28;20044;-43
2022/02/21 09:36:12;;;;;;;8.68;2.33;;;;;;;3.50;100.00;99540.50;5052840;28;20258;-48
2022/02/21 09:38:40;;;;;;;9.52;2.15;;;;;;;3.43;100.00;99549.56;5063838;28;20037;-44
2022/02/21 09:41:08;;;;;;;11.57;2.03;;;;;;;3.38;100.00;99536.84;5052012;28;20053;-45
2022/02/21 09:43:37;;;;;;;9.52;2.08;;;;;;;3.37;100.00;99529.13;5052742;28;20402;-48
2022/02/21 09:46:07;;;;;;;9.35;2.03;;;;;;;3.33;100.00;99522.44;5050465;28;20049;-44
2022/02/21 09:48:36;;;;;;;8.90;2.22;;;;;;;3.22;100.00;99508.28;5050858;28;20068;-47
2022/02/21 09:51:06;;;;;;;9.50;2.53;;;;;;;3.19;100.00;99511.06;5052642;28;20151;-49
2022/02/21 09:53:39;;;;;;;15.32;2.33;;;;;;;3.19;100.00;99511.06;5052650;28;20466;-47
2022/02/21 09:56:07;;;;;;;10.18;1.92;;;;;;;3.16;100.00;99503.44;5052181;28;20514;-47
2022/02/21 09:58:35;;;;;;;11.50;2.30;;;;;;;3.14;100.00;99510.47;5052592;28;20041;-45
2022/02/21 10:01:04;;;;;;;8.10;2.00;;;;;;;3.20;100.00;99507.53;5052001;28;20045;-46
2022/02/21 10:03:52;;;;;;;11.65;2.45;;;;;;;3.18;100.00;99488.56;5052094;28;20043;-48
2022/02/21 10:06:24;;;;;;;14.10;2.20;;;;;;;3.20;100.00;99488.50;5052232;28;20708;-45
2022/02/21 10:08:56;;;;;;;11.97;2.63;;;;;;;3.23;100.00;99493.50;5052514;28;20051;-49
2022/02/21 10:11:41;;;;;;;6.28;2.25;;;;;;;3.22;100.00;99486.66;5051923;28;20045;-49
2022/02/21 10:14:12;;;;;;;11.13;2.70;;;;;;;3.25;100.00;99477.84;5052151;28;20076;-46
2022/02/21 10:16:44;;;;;;;15.55;2.90;;;;;;;3.31;100.00;99478.34;5052013;28;20044;-43
2022/02/21 10:19:20;;;;;;;12.25;2.50;;;;;;;3.21;100.00;99478.00;5052238;28;20057;-54
2022/02/21 10:21:59;;;;;;;9.60;2.72;;;;;;;3.30;100.00;99475.81;5052502;28;20064;-54
2022/02/21 10:24:31;;;;;;;13.55;3.15;;;;;;;3.30;100.00;99481.00;5052284;28;20113;-56
2022/02/21 10:27:07;;;;;;;13.68;2.80;;;;;;;3.37;100.00;99480.59;5051984;28;20484;-54
2022/02/21 10:29:46;;;;;;;14.07;3.45;;;;;;;3.38;100.00;99478.81;5052343;28;20526;-54
2022/02/21 10:32:15;;;;;;;11.40;2.30;;;;;;;3.44;100.00;99483.66;5052147;28;20048;-53
2022/02/21 10:34:45;;;;;;;18.92;2.90;;;;;;;3.35;100.00;99490.25;5052184;28;20071;-53
2022/02/21 10:37:14;;;;;;;11.82;2.33;;;;;;;3.27;100.00;99496.78;5052021;28;20651;-55
2022/02/21 10:39:44;;;;;;;12.50;2.22;;;;;;;3.28;100.00;99488.06;5051962;28;20044;-53
2022/02/21 10:42:12;;;;;;;13.90;2.20;;;;;;;3.31;100.00;99498.28;5051960;28;20454;-53
2022/02/21 10:44:41;;;;;;;12.50;2.63;;;;;;;3.21;100.00;99493.59;5052040;28;20045;-55
2022/02/21 10:47:12;;;;;;;8.90;2.33;;;;;;;3.21;100.00;99490.16;5051666;28;20136;-54
2022/02/21 10:49:52;;;;;;;15.82;3.58;;;;;;;3.18;100.00;99491.19;5052124;28;20033;-52
2022/02/21 10:52:23;;;;;;;10.63;2.15;;;;;;;3.24;100.00;99496.97;5052072;28;20049;-50
2022/02/21 10:54:53;;;;;;;6.13;1.58;;;;;;;3.18;100.00;99461.78;5052076;28;20114;-54
2022/02/21 10:57:25;;;;;;;11.80;2.33;;;;;;;3.09;100.00;99489.09;5052052;28;20483;-53
2022/02/21 10:59:53;;;;;;;14.07;2.47;;;;;;;3.06;100.00;99484.06;5052143;28;20045;-52
2022/02/21 11:02:23;;;;;;;12.52;2.30;;;;;;;3.01;100.00;99467.91;5052033;28;20080;-55
2022/02/21 11:04:53;;;;;;;10.20;2.30;;;;;;;3.06;100.00;99460.69;5050592;28;20411;-54
2022/02/21 11:07:21;;;;;;;8.27;1.73;;;;;;;3.14;100.00;99455.91;5051836;28;20045;-54
2022/02/21 11:09:50;;;;;;;12.60;2.45;;;;;;;3.13;100.00;99467.22;5051917;28;20353;-55
2022/02/21 11:12:22;;;;;;;7.97;2.03;;;;;;;3.15;100.00;99470.56;5051731;28;20055;-54
2022/02/21 11:14:50;;;;;;;13.35;2.05;;;;;;;3.16;100.00;99448.88;5051882;28;20041;-55
2022/02/21 11:17:19;;;;;;;13.73;1.95;;;;;;;3.13;100.00;99448.19;5051524;28;20037;-55
2022/02/21 11:19:48;;;;;;;8.13;1.73;;;;;;;3.22;100.00;99440.72;5051205;28;20041;-52
2022/02/21 11:22:18;;;;;;;8.75;2.28;;;;;;;3.25;100.00;99424.09;5051399;28;20056;-55
2022/02/21 11:24:52;;;;;;;12.65;1.67;;;;;;;3.30;100.00;99429.88;5054871;28;20438;-54
2022/02/21 11:27:31;;;;;;;8.43;2.15;;;;;;;3.24;100.00;99434.59;5054870;28;20052;-55
2022/02/21 11:30:06;;;;;;;11.40;2.33;;;;;;;3.28;100.00;99426.53;5055324;28;20044;-54
2022/02/21 11:32:35;;;;;;;9.23;1.90;;;;;;;3.35;100.00;99421.81;5055559;28;20549;-55
2022/02/21 11:35:13;;;;;;;9.93;1.95;;;;;;;3.33;100.00;99421.09;5055193;28;20072;-55
2022/02/21 11:37:44;;;;;;;11.05;2.50;;;;;;;3.34;100.00;99399.34;5055255;28;20128;-53
2022/02/21 11:40:13;;;;;;;12.15;1.90;;;;;;;3.40;100.00;99409.41;5055164;28;20063;-55